Time;durP1;ratioP1;P1;durP2;ratioP2;P2;SDS_P1;SDS_P2;PMS_P1;PMS_P2;Temp;Humidity;BMP_temperature;BMP_pressure;BME280_temperature;BME280_humidity;BME280_pressure;Samples;Min_cycle;Max_cycle;Signal;HPM_P1;HPM_P2
2024/01/27 00:02:01;;;;;;;12.25;8.13;;;;;;;21.37;30.63;103247.44;4246820;27;20053;-56
2024/01/27 00:04:02;;;;;;;13.02;7.82;;;;;;;21.41;30.56;103253.53;4247379;27;20043;-57
2024/01/27 00:06:04;;;;;;;11.27;7.97;;;;;;;21.42;30.51;103249.03;4246876;28;20040;-57
2024/01/27 00:08:06;;;;;;;13.45;8.20;;;;;;;21.41;30.32;103248.19;4249482;27;20416;-56
2024/01/27 00:10:08;;;;;;;11.85;8.15;;;;;;;21.47;30.40;103247.94;4250417;27;20155;-58
2024/01/27 00:12:09;;;;;;;;;;;;;;;21.47;30.35;103247.94;4249798;27;20514;-56
2024/01/27 00:14:11;;;;;;;14.15;8.82;;;;;;;21.47;30.39;103239.00;4250172;27;19919;-56
2024/01/27 00:16:12;;;;;;;;;;;;;;;21.49;30.13;103243.38;4250331;27;20043;-56
2024/01/27 00:18:16;;;;;;;11.73;8.80;;;;;;;21.48;30.19;103247.00;4250160;27;20347;-56
2024/01/27 00:20:18;;;;;;;12.48;8.50;;;;;;;21.49;30.16;103247.88;4245776;27;20039;-56
2024/01/27 00:22:20;;;;;;;14.73;8.88;;;;;;;21.50;30.19;103260.31;4231889;28;20483;-55
2024/01/27 00:24:23;;;;;;;14.50;9.27;;;;;;;21.47;30.13;103265.78;4229213;28;20052;-56
2024/01/27 00:26:25;;;;;;;14.23;9.32;;;;;;;21.45;30.48;103259.66;4215913;28;20051;-56
2024/01/27 00:28:27;;;;;;;14.88;9.45;;;;;;;21.43;30.58;103259.69;4216050;28;20048;-55
2024/01/27 00:30:29;;;;;;;12.93;8.88;;;;;;;21.39;30.56;103263.44;4214238;28;20044;-55
2024/01/27 00:32:31;;;;;;;13.85;9.20;;;;;;;21.39;30.56;103261.63;4215990;28;20050;-56
2024/01/27 00:34:33;;;;;;;13.52;9.65;;;;;;;21.41;30.73;103266.94;4215871;28;20052;-56
2024/01/27 00:36:37;;;;;;;14.27;9.38;;;;;;;21.39;30.10;103258.94;4198161;28;20098;-56
2024/01/27 00:38:40;;;;;;;13.98;9.57;;;;;;;21.43;30.49;103261.50;4215792;28;20044;-56
2024/01/27 00:40:42;;;;;;;13.40;9.10;;;;;;;21.49;30.13;103263.94;4214705;28;20090;-56
2024/01/27 00:42:44;;;;;;;14.27;9.57;;;;;;;21.50;30.33;103252.28;4214606;28;20503;-56
2024/01/27 00:44:47;;;;;;;12.75;9.43;;;;;;;21.52;30.25;103253.97;4215517;28;20129;-55
2024/01/27 00:46:48;;;;;;;14.65;10.23;;;;;;;21.53;30.21;103258.38;4197663;28;20085;-56
2024/01/27 00:48:50;;;;;;;15.10;9.50;;;;;;;21.51;30.43;103262.06;4215826;28;20063;-55
2024/01/27 00:50:52;;;;;;;13.45;9.50;;;;;;;21.49;30.05;103269.28;4215654;28;20048;-54
2024/01/27 00:52:53;;;;;;;14.50;9.75;;;;;;;21.47;30.26;103265.78;4215719;28;20048;-55
2024/01/27 00:55:00;;;;;;;13.82;10.13;;;;;;;21.43;30.21;103261.50;4216603;27;20055;-55
2024/01/27 00:57:02;;;;;;;12.88;9.50;;;;;;;21.41;30.10;103253.53;4248096;27;20043;-56
2024/01/27 00:59:04;;;;;;;13.27;9.80;;;;;;;21.39;30.62;103256.25;4249071;27;20039;-57
2024/01/27 01:01:06;;;;;;;15.02;10.00;;;;;;;21.39;30.19;103260.75;4248236;27;20047;-55
2024/01/27 01:03:08;;;;;;;12.80;9.35;;;;;;;21.39;30.45;103256.25;4249341;27;20099;-56
2024/01/27 01:05:10;;;;;;;13.38;9.40;;;;;;;21.42;30.44;103252.59;4249253;27;20042;-55
2024/01/27 01:07:12;;;;;;;;;;;;;;;21.41;30.10;103248.19;4249868;27;20043;-54
2024/01/27 01:09:13;;;;;;;14.70;10.13;;;;;;;21.44;30.31;103252.53;4249402;27;19923;-56
2024/01/27 01:11:15;;;;;;;12.93;9.48;;;;;;;21.47;30.16;103250.59;4249324;27;20050;-56
2024/01/27 01:13:18;;;;;;;14.52;10.13;;;;;;;21.51;30.53;103251.34;4247615;27;20043;-56
2024/01/27 01:15:20;;;;;;;14.25;10.15;;;;;;;21.50;30.33;103245.09;4249265;27;20047;-56
2024/01/27 01:17:21;;;;;;;14.93;10.02;;;;;;;21.50;30.32;103246.94;4249167;27;20114;-55
2024/01/27 01:19:23;;;;;;;14.45;10.20;;;;;;;21.49;30.11;103234.47;4248553;27;20074;-55
2024/01/27 01:21:25;;;;;;;15.40;10.73;;;;;;;21.42;30.32;103236.53;4235539;27;20051;-55
2024/01/27 01:23:27;;;;;;;14.52;10.25;;;;;;;21.41;30.29;103242.84;4231992;28;20075;-54
2024/01/27 01:25:33;;;;;;;14.98;9.77;;;;;;;21.41;30.22;103240.16;4217146;28;20055;-56
2024/01/27 01:27:40;;;;;;;16.70;10.80;;;;;;;21.38;30.27;103230.41;4214797;28;20043;-55
2024/01/27 01:29:46;;;;;;;14.00;10.18;;;;;;;21.36;30.36;103232.31;4215129;28;20123;-54
2024/01/27 01:31:48;;;;;;;14.68;9.93;;;;;;;21.39;30.21;103228.63;4215088;28;20051;-56
2024/01/27 01:33:50;;;;;;;14.13;10.32;;;;;;;21.41;30.14;103231.25;4214942;28;20126;-55
2024/01/27 01:35:53;;;;;;;14.38;10.07;;;;;;;21.42;30.66;103233.84;4215119;28;20054;-56
2024/01/27 01:37:54;;;;;;;13.30;10.00;;;;;;;21.46;30.20;103237.25;4214926;28;20048;-55
2024/01/27 01:40:02;;;;;;;14.82;10.13;;;;;;;21.48;29.96;103230.94;4214660;28;20123;-54
2024/01/27 01:42:04;;;;;;;14.82;10.43;;;;;;;21.50;30.08;103222.84;4214299;28;20396;-55
2024/01/27 01:44:06;;;;;;;14.43;10.15;;;;;;;21.50;30.54;103226.38;4214897;28;20040;-55
2024/01/27 01:46:07;;;;;;;;;;;;;;;21.47;30.16;103231.88;4215158;28;20047;-56
2024/01/27 01:48:09;;;;;;;17.27;10.70;;;;;;;21.42;30.10;103223.13;4214717;28;20007;-56
2024/01/27 01:50:11;;;;;;;15.23;11.20;;;;;;;21.40;30.26;103230.38;4214796;28;20044;-56
2024/01/27 01:52:19;;;;;;;15.77;10.85;;;;;;;21.38;30.43;103232.25;4214709;28;20055;-56
2024/01/27 01:54:22;;;;;;;14.00;10.40;;;;;;;21.34;30.37;103222.59;4214355;28;20059;-55
2024/01/27 01:56:25;;;;;;;13.95;10.65;;;;;;;21.30;30.39;103229.91;4239049;27;20580;-55
2024/01/27 01:58:33;;;;;;;13.98;10.73;;;;;;;21.28;30.57;103221.03;4248113;27;20050;-56
2024/01/27 02:00:35;;;;;;;14.93;11.43;;;;;;;21.29;30.59;103228.16;4247949;27;20051;-56
2024/01/27 02:02:37;;;;;;;;;;;;;;;21.29;30.57;103230.81;4248683;27;20053;-55
2024/01/27 02:04:42;;;;;;;14.00;10.40;;;;;;;21.29;30.53;103236.19;4248240;27;20019;-55
2024/01/27 02:06:44;;;;;;;16.42;11.05;;;;;;;21.34;30.53;103242.19;4248182;27;20312;-56
2024/01/27 02:08:46;;;;;;;17.65;12.43;;;;;;;21.36;30.43;103242.13;4246891;27;20100;-55
2024/01/27 02:10:48;;;;;;;16.05;11.38;;;;;;;21.36;30.18;103243.03;4247920;27;20055;-55
2024/01/27 02:12:49;;;;;;;13.98;10.55;;;;;;;21.37;30.45;103244.78;4248355;27;20062;-54
2024/01/27 02:14:51;;;;;;;14.90;10.55;;;;;;;21.36;30.40;103234.09;4247982;27;20118;-55
2024/01/27 02:16:53;;;;;;;16.00;11.43;;;;;;;21.31;30.14;103231.63;4247933;27;20104;-55
2024/01/27 02:18:55;;;;;;;14.98;11.60;;;;;;;21.32;30.35;103228.00;4247855;27;20043;-55
2024/01/27 02:20:57;;;;;;;;;;;;;;;21.29;30.40;103233.50;4238770;27;20065;-56
2024/01/27 02:22:58;;;;;;;15.43;11.30;;;;;;;21.25;30.46;103226.50;4231170;28;20287;-56
2024/01/27 02:25:00;;;;;;;15.70;11.25;;;;;;;21.23;30.67;103237.28;4221876;28;20293;-55
2024/01/27 02:27:02;;;;;;;15.90;11.40;;;;;;;21.25;30.30;103231.84;4213799;28;20131;-56
2024/01/27 02:29:04;;;;;;;17.30;11.65;;;;;;;21.28;30.54;103229.06;4214125;28;20434;-54
2024/01/27 02:31:05;;;;;;;17.20;11.45;;;;;;;21.29;30.49;103220.13;4213163;28;20437;-55
2024/01/27 02:33:07;;;;;;;15.15;11.35;;;;;;;21.32;30.21;103217.28;4214042;28;20472;-56
2024/01/27 02:35:09;;;;;;;;;;;;;;;21.33;30.40;103226.22;4214305;28;20044;-55
2024/01/27 02:37:12;;;;;;;14.77;11.32;;;;;;;21.33;30.48;103218.19;4213842;28;19924;-55
2024/01/27 02:39:14;;;;;;;14.85;10.90;;;;;;;21.34;30.44;103211.91;4213985;28;20044;-54
2024/01/27 02:41:15;;;;;;;15.05;11.30;;;;;;;21.34;30.19;103215.44;4213552;28;20063;-55
2024/01/27 02:43:17;;;;;;;16.60;12.13;;;;;;;21.33;30.13;103207.47;4213801;28;20415;-55
2024/01/27 02:45:19;;;;;;;15.52;11.50;;;;;;;21.31;30.30;103203.97;4214047;28;20044;-55
2024/01/27 02:47:20;;;;;;;16.55;11.90;;;;;;;21.30;30.41;103210.25;4213982;28;20044;-55
2024/01/27 02:49:22;;;;;;;15.13;11.05;;;;;;;21.24;30.32;103211.41;4213782;28;20044;-55
2024/01/27 02:51:24;;;;;;;14.63;11.00;;;;;;;21.23;30.57;103210.53;4212718;28;20612;-54
2024/01/27 02:53:25;;;;;;;;;;;;;;;21.23;30.45;103209.66;4214159;28;20040;-55
2024/01/27 02:55:27;;;;;;;16.30;11.18;;;;;;;21.25;30.12;103204.25;4220736;27;19926;-55
2024/01/27 02:57:29;;;;;;;14.80;11.32;;;;;;;21.32;30.26;103205.72;4247535;27;20054;-55
2024/01/27 02:59:30;;;;;;;;;;;;;;;21.32;30.20;103213.75;4248062;27;20063;-56
2024/01/27 03:01:32;;;;;;;16.43;11.67;;;;;;;21.31;29.95;103210.22;4246370;27;19928;-57
2024/01/27 03:03:34;;;;;;;15.05;11.00;;;;;;;21.32;29.98;103216.44;4246527;27;20194;-54
2024/01/27 03:05:35;;;;;;;;;;;;;;;21.32;30.23;103216.44;4247958;27;20058;-55
2024/01/27 03:07:37;;;;;;;15.35;10.57;;;;;;;21.29;30.14;103216.56;4247358;27;19954;-55
2024/01/27 03:09:39;;;;;;;14.32;10.43;;;;;;;21.28;30.17;103210.34;4247172;27;20118;-58
2024/01/27 03:11:40;;;;;;;15.38;10.68;;;;;;;21.25;30.12;103207.78;4247237;27;20091;-55
2024/01/27 03:13:45;;;;;;;13.73;9.77;;;;;;;21.23;30.39;103209.66;4247556;27;20043;-55
2024/01/27 03:15:47;;;;;;;14.40;10.32;;;;;;;21.20;30.33;103199.97;4247610;27;20100;-55
2024/01/27 03:17:48;;;;;;;14.07;9.63;;;;;;;21.20;30.27;103201.75;4247447;27;20043;-55
2024/01/27 03:19:50;;;;;;;;;;;;;;;21.18;30.33;103196.47;4247601;27;20047;-55
2024/01/27 03:21:52;;;;;;;13.57;10.00;;;;;;;21.19;30.25;103202.69;4230392;28;19919;-55
2024/01/27 03:23:53;;;;;;;;;;;;;;;21.22;30.06;103192.72;4230461;28;20040;-56
2024/01/27 03:25:55;;;;;;;14.80;9.60;;;;;;;21.22;30.10;103187.38;4213557;28;20045;-56
2024/01/27 03:27:57;;;;;;;;;;;;;;;21.28;30.09;103188.06;4213906;28;20123;-56
2024/01/27 03:30:01;;;;;;;12.88;9.15;;;;;;;21.27;30.35;103184.50;4213496;28;19920;-55
2024/01/27 03:32:03;;;;;;;13.63;8.98;;;;;;;21.27;30.04;103191.69;4212331;28;20090;-55
2024/01/27 03:34:05;;;;;;;11.95;8.95;;;;;;;21.31;30.01;103201.31;4213461;28;20396;-55
2024/01/27 03:36:11;;;;;;;13.05;8.68;;;;;;;21.29;30.09;103196.03;4213280;28;20044;-55
2024/01/27 03:38:13;;;;;;;13.00;8.43;;;;;;;21.26;30.02;103196.13;4213086;28;20044;-54
2024/01/27 03:40:14;;;;;;;11.63;8.80;;;;;;;21.24;29.96;103190.00;4213442;28;20131;-55
2024/01/27 03:42:16;;;;;;;12.40;8.57;;;;;;;21.21;29.96;103188.28;4214124;28;20102;-55
2024/01/27 03:44:18;;;;;;;13.50;8.82;;;;;;;21.20;30.30;103191.03;4216758;28;20052;-55
2024/01/27 03:46:19;;;;;;;14.45;8.82;;;;;;;21.18;30.03;103196.47;4215134;28;20055;-55
2024/01/27 03:48:21;;;;;;;10.88;7.85;;;;;;;21.18;30.44;103196.47;4216576;28;20415;-56
2024/01/27 03:50:23;;;;;;;11.07;7.57;;;;;;;21.20;30.14;103189.25;4216610;28;20051;-56
2024/01/27 03:52:24;;;;;;;13.65;8.10;;;;;;;21.21;29.74;103182.94;4215036;28;20051;-55
2024/01/27 03:54:26;;;;;;;12.70;7.82;;;;;;;21.25;30.16;103181.00;4216572;28;20075;-56
2024/01/27 03:56:28;;;;;;;10.35;7.53;;;;;;;21.28;30.14;103180.03;4242334;27;20084;-53
2024/01/27 03:58:30;;;;;;;11.27;7.57;;;;;;;21.30;30.11;103184.38;4250448;27;20108;-55
2024/01/27 04:00:32;;;;;;;10.98;7.18;;;;;;;21.31;30.13;103183.47;4250144;27;20075;-55
2024/01/27 04:02:34;;;;;;;11.57;7.55;;;;;;;21.30;30.02;103184.38;4250430;27;20142;-55
2024/01/27 04:04:36;;;;;;;11.05;6.90;;;;;;;21.28;29.47;103183.56;4250156;27;20391;-55
2024/01/27 04:06:40;;;;;;;9.90;7.40;;;;;;;21.25;29.73;103177.47;4249771;27;20043;-55
2024/01/27 04:08:45;;;;;;;10.85;7.05;;;;;;;21.23;30.19;103178.41;4250263;27;20504;-56
2024/01/27 04:10:47;;;;;;;10.15;6.85;;;;;;;21.21;29.76;103180.25;4250155;27;20134;-56
2024/01/27 04:12:49;;;;;;;;;;;;;;;21.17;29.72;103181.34;4250421;27;20039;-55
2024/01/27 04:14:50;;;;;;;11.05;7.28;;;;;;;21.14;30.13;103186.84;4250147;27;19919;-55
2024/01/27 04:16:52;;;;;;;9.93;6.45;;;;;;;21.17;29.89;103191.19;4250243;27;20054;-55
2024/01/27 04:18:54;;;;;;;10.25;6.70;;;;;;;21.21;30.24;103185.63;4249825;27;20085;-55
2024/01/27 04:20:55;;;;;;;;;;;;;;;21.22;29.63;103178.47;4240771;27;20039;-54
2024/01/27 04:22:57;;;;;;;13.77;7.03;;;;;;;21.23;29.82;103183.75;4232812;28;20007;-55
2024/01/27 04:24:59;;;;;;;10.18;6.72;;;;;;;21.28;29.78;103190.75;4223921;28;20052;-56
2024/01/27 04:27:02;;;;;;;10.40;6.43;;;;;;;21.29;29.77;103193.34;4215966;28;20044;-54
2024/01/27 04:29:04;;;;;;;11.40;7.00;;;;;;;21.30;29.66;103196.88;4216143;28;20047;-56
2024/01/27 04:31:06;;;;;;;11.73;6.72;;;;;;;21.27;29.48;103191.69;4215999;28;20048;-55
2024/01/27 04:33:07;;;;;;;10.27;6.65;;;;;;;21.25;29.73;103198.88;4215964;28;20170;-55
2024/01/27 04:35:10;;;;;;;11.13;6.85;;;;;;;21.20;29.89;103207.09;4214747;28;20044;-55
2024/01/27 04:37:12;;;;;;;11.70;7.20;;;;;;;21.19;29.59;103208.03;4215480;28;20062;-55
2024/01/27 04:39:13;;;;;;;9.40;6.38;;;;;;;21.17;30.04;103207.25;4215736;28;20142;-55
2024/01/27 04:41:15;;;;;;;11.27;7.05;;;;;;;21.13;30.04;103209.16;4215787;28;20048;-55
2024/01/27 04:43:19;;;;;;;10.95;7.18;;;;;;;21.13;29.92;103208.28;4214311;28;20513;-56
2024/01/27 04:45:21;;;;;;;11.13;7.28;;;;;;;21.14;29.97;103210.03;4215831;28;20492;-55
2024/01/27 04:47:23;;;;;;;;;;;;;;;21.14;29.78;103210.91;4215778;28;20048;-55
2024/01/27 04:49:25;;;;;;;12.27;7.23;;;;;;;21.16;29.64;103205.50;4215659;28;19920;-56
2024/01/27 04:51:27;;;;;;;10.82;6.97;;;;;;;21.19;29.88;103208.91;4215388;28;20067;-55
2024/01/27 04:53:29;;;;;;;;;;;;;;;21.19;29.44;103202.69;4215086;28;20075;-55
2024/01/27 04:55:30;;;;;;;12.15;7.65;;;;;;;21.20;29.59;103196.41;4224982;27;19919;-56
2024/01/27 04:57:32;;;;;;;11.77;7.80;;;;;;;21.20;29.56;103196.41;4249374;27;20134;-56
2024/01/27 04:59:34;;;;;;;;;;;;;;;21.19;29.63;103202.69;4249511;27;20063;-56
2024/01/27 05:01:35;;;;;;;11.70;7.70;;;;;;;21.16;29.79;103206.34;4249339;27;19967;-55
2024/01/27 05:03:38;;;;;;;11.43;7.72;;;;;;;21.14;30.32;103208.25;4249370;27;20122;-55
2024/01/27 05:05:43;;;;;;;12.18;7.80;;;;;;;21.13;30.02;103210.97;4248929;27;20462;-54
2024/01/27 05:07:44;;;;;;;11.90;7.97;;;;;;;21.11;29.84;103207.50;4249255;27;20065;-55
2024/01/27 05:09:46;;;;;;;11.77;8.15;;;;;;;21.08;29.66;103205.78;4249374;27;20040;-55
2024/01/27 05:11:48;;;;;;;13.13;8.60;;;;;;;21.06;30.06;103207.69;4249094;27;20122;-54
2024/01/27 05:13:50;;;;;;;11.35;8.20;;;;;;;21.08;29.73;103210.28;4249234;27;20047;-55
2024/01/27 05:15:52;;;;;;;12.20;8.35;;;;;;;21.12;29.76;103214.56;4247912;27;20189;-55
2024/01/27 05:17:53;;;;;;;12.82;8.38;;;;;;;21.13;29.83;103209.16;4249410;27;20047;-53
2024/01/27 05:19:55;;;;;;;11.48;8.52;;;;;;;21.15;29.53;103214.44;4247532;27;20051;-54
2024/01/27 05:21:57;;;;;;;;;;;;;;;21.17;29.52;103217.94;4232268;28;20509;-54
2024/01/27 05:23:58;;;;;;;12.90;8.77;;;;;;;21.16;29.45;103216.19;4231508;28;19931;-56
2024/01/27 05:26:00;;;;;;;12.13;8.65;;;;;;;21.17;29.46;103221.47;4215059;28;20044;-55
2024/01/27 05:28:02;;;;;;;12.70;8.38;;;;;;;21.17;29.75;103217.94;4214862;28;20056;-55
2024/01/27 05:30:08;;;;;;;12.68;8.88;;;;;;;21.15;29.34;103220.66;4214917;28;20071;-55
2024/01/27 05:32:09;;;;;;;11.60;8.20;;;;;;;21.12;29.36;103215.44;4214905;28;20043;-58
2024/01/27 05:34:11;;;;;;;13.48;9.20;;;;;;;21.10;29.59;103208.44;4213381;28;20163;-56
2024/01/27 05:36:13;;;;;;;;;;;;;;;21.05;29.75;103206.78;4215127;28;20150;-55
2024/01/27 05:38:16;;;;;;;12.75;8.75;;;;;;;21.01;29.54;103215.00;4214914;28;19942;-57
2024/01/27 05:40:17;;;;;;;13.05;8.60;;;;;;;20.92;29.80;103193.97;4214869;28;20449;-57
2024/01/27 05:42:19;;;;;;;12.75;8.85;;;;;;;21.05;29.79;103208.59;4214633;28;20048;-57
2024/01/27 05:44:20;;;;;;;11.93;8.13;;;;;;;21.08;29.71;103208.47;4214764;28;20040;-57
2024/01/27 05:46:23;;;;;;;12.32;8.48;;;;;;;21.12;29.42;103202.06;4214717;28;20040;-57
2024/01/27 05:48:25;;;;;;;12.93;8.30;;;;;;;21.14;29.34;103207.34;4214435;28;20454;-53
2024/01/27 05:50:27;;;;;;;;;;;;;;;21.14;29.38;103204.69;4213989;28;20102;-54
2024/01/27 05:52:28;;;;;;;13.93;8.57;;;;;;;21.14;29.13;103205.56;4214471;28;19920;-57
2024/01/27 05:54:30;;;;;;;12.13;8.20;;;;;;;21.14;29.20;103207.34;4214551;28;20068;-54
2024/01/27 05:56:32;;;;;;;11.80;8.27;;;;;;;21.14;29.48;103202.00;4242141;27;20043;-54
2024/01/27 05:58:33;;;;;;;11.55;8.23;;;;;;;21.13;29.40;103205.59;4248361;27;20043;-56
2024/01/27 06:00:35;;;;;;;13.25;8.20;;;;;;;21.10;29.42;103195.03;4248274;27;20047;-52
2024/01/27 06:02:37;;;;;;;;;;;;;;;21.06;29.47;103205.84;4248397;27;20047;-54
2024/01/27 06:04:39;;;;;;;11.43;8.00;;;;;;;21.01;29.56;103201.63;4248452;27;19926;-52
2024/01/27 06:06:40;;;;;;;10.10;7.53;;;;;;;21.01;29.62;103198.94;4247020;27;20047;-54
2024/01/27 06:08:42;;;;;;;10.82;8.35;;;;;;;21.02;29.49;103193.56;4248141;27;20522;-54
2024/01/27 06:10:44;;;;;;;11.02;8.00;;;;;;;21.03;29.50;103195.31;4248235;27;20558;-51
2024/01/27 06:12:45;;;;;;;11.30;7.63;;;;;;;21.06;29.44;103195.16;4247933;27;20054;-54
2024/01/27 06:14:47;;;;;;;12.00;7.88;;;;;;;21.10;29.34;103206.59;4248410;27;20047;-54
2024/01/27 06:16:51;;;;;;;11.88;7.85;;;;;;;21.14;29.02;103207.34;4246651;27;20139;-53
2024/01/27 06:18:54;;;;;;;11.50;7.78;;;;;;;21.15;29.23;103209.97;4247603;27;20093;-54
2024/01/27 06:20:56;;;;;;;10.75;7.95;;;;;;;21.14;29.12;103216.28;4238543;27;20051;-55
2024/01/27 06:22:57;;;;;;;11.02;7.57;;;;;;;21.14;29.20;103213.59;4230932;28;20048;-53
2024/01/27 06:24:59;;;;;;;13.18;8.45;;;;;;;21.10;29.15;103208.44;4222107;28;20044;-55
2024/01/27 06:27:01;;;;;;;12.52;7.78;;;;;;;21.09;29.21;103204.00;4214352;28;20048;-55
2024/01/27 06:29:04;;;;;;;11.80;7.97;;;;;;;21.07;29.18;103204.06;4214014;28;20089;-55
2024/01/27 06:31:07;;;;;;;11.07;7.65;;;;;;;21.05;29.30;103200.59;4214268;28;20105;-57
2024/01/27 06:33:09;;;;;;;11.00;7.50;;;;;;;21.01;29.24;103204.28;4213596;28;20052;-55
2024/01/27 06:35:10;;;;;;;10.85;7.60;;;;;;;20.99;29.32;103201.69;4213826;28;20083;-55
2024/01/27 06:37:12;;;;;;;12.05;7.53;;;;;;;20.99;29.47;103201.69;4214198;28;20040;-55
2024/01/27 06:39:14;;;;;;;12.40;7.72;;;;;;;21.01;29.62;103201.63;4214019;28;20567;-54
2024/01/27 06:41:16;;;;;;;11.25;7.15;;;;;;;21.03;29.12;103199.75;4214037;28;20052;-55
2024/01/27 06:43:18;;;;;;;10.70;7.25;;;;;;;21.06;29.12;103197.84;4213889;28;20052;-55
2024/01/27 06:45:19;;;;;;;10.45;7.10;;;;;;;21.09;29.30;103199.50;4213766;28;20044;-55
2024/01/27 06:47:21;;;;;;;10.45;7.28;;;;;;;21.10;28.95;103201.25;4213285;28;20048;-55
2024/01/27 06:49:22;;;;;;;10.50;7.60;;;;;;;21.09;28.96;103202.19;4213853;28;20043;-55
2024/01/27 06:51:24;;;;;;;10.02;6.90;;;;;;;21.08;29.13;103202.25;4213897;28;20122;-57
2024/01/27 06:53:26;;;;;;;12.63;7.38;;;;;;;21.03;29.01;103203.31;4214078;28;20044;-55
2024/01/27 06:55:28;;;;;;;11.02;7.47;;;;;;;21.05;28.98;103213.97;4222964;27;20039;-55
2024/01/27 06:57:29;;;;;;;11.35;6.95;;;;;;;21.02;29.08;103204.25;4247465;27;20531;-55
2024/01/27 06:59:31;;;;;;;11.13;7.65;;;;;;;21.01;29.30;103199.84;4247556;27;20108;-55
2024/01/27 07:01:32;;;;;;;10.13;7.30;;;;;;;20.97;29.30;103210.72;4247141;27;20043;-55
2024/01/27 07:03:34;;;;;;;11.32;7.63;;;;;;;20.96;29.15;103209.84;4247564;27;20178;-55
2024/01/27 07:05:40;;;;;;;10.23;6.97;;;;;;;20.96;29.22;103199.16;4247448;27;20074;-56
2024/01/27 07:07:42;;;;;;;10.32;7.07;;;;;;;21.00;29.05;103199.91;4247476;27;20107;-56
2024/01/27 07:09:43;;;;;;;11.23;7.10;;;;;;;21.02;29.17;103198.91;4247375;27;20039;-55
2024/01/27 07:11:45;;;;;;;10.13;6.97;;;;;;;21.05;29.22;103201.44;4247168;27;20047;-57
2024/01/27 07:13:46;;;;;;;11.68;7.60;;;;;;;21.07;28.96;103198.72;4247373;27;20092;-56
2024/01/27 07:15:48;;;;;;;12.55;7.47;;;;;;;21.10;28.81;103195.91;4246871;28;20047;-54
2024/01/27 07:17:49;;;;;;;11.07;6.43;;;;;;;21.08;28.87;103204.94;4246596;27;20103;-54
2024/01/27 07:19:51;;;;;;;;;;;;;;;21.04;28.83;103205.03;4247309;27;20050;-55
2024/01/27 07:21:53;;;;;;;10.90;7.20;;;;;;;21.03;28.91;103213.13;4230334;28;19919;-55
2024/01/27 07:23:54;;;;;;;9.98;7.22;;;;;;;21.01;29.06;103206.97;4230395;28;20662;-56
2024/01/27 07:26:02;;;;;;;10.25;7.18;;;;;;;21.00;29.19;103216.81;4213280;28;20083;-55
2024/01/27 07:28:04;;;;;;;10.38;7.30;;;;;;;20.96;28.90;103208.97;4213365;28;20048;-55
2024/01/27 07:30:09;;;;;;;10.50;7.25;;;;;;;20.94;29.01;103217.06;4213201;28;20055;-58
2024/01/27 07:32:13;;;;;;;10.80;7.25;;;;;;;20.92;29.06;103212.72;4213289;28;20063;-55
2024/01/27 07:34:15;;;;;;;11.45;6.95;;;;;;;20.96;29.21;103219.66;4213038;28;20056;-60
2024/01/27 07:36:16;;;;;;;;;;;;;;;20.97;29.08;103224.94;4213745;28;20121;-54
2024/01/27 07:38:18;;;;;;;11.00;7.00;;;;;;;20.98;29.06;103224.03;4213129;28;19927;-57
2024/01/27 07:40:20;;;;;;;11.00;6.93;;;;;;;21.02;28.90;103217.63;4213573;28;20051;-58
2024/01/27 07:42:21;;;;;;;;;;;;;;;21.02;28.81;103228.34;4214055;28;20044;-57
2024/01/27 07:44:23;;;;;;;10.87;6.57;;;;;;;21.02;28.89;103222.97;4212780;28;19924;-56
2024/01/27 07:46:25;;;;;;;9.13;6.70;;;;;;;21.02;29.31;103228.34;4213291;28;20340;-58
2024/01/27 07:48:26;;;;;;;11.02;7.00;;;;;;;21.03;28.66;103230.09;4213317;28;20071;-56
2024/01/27 07:50:28;;;;;;;10.43;6.65;;;;;;;21.01;29.01;103226.59;4213172;28;20055;-56
2024/01/27 07:52:30;;;;;;;12.02;6.82;;;;;;;20.99;29.01;103211.53;4213120;28;20052;-57
2024/01/27 07:54:32;;;;;;;10.63;7.22;;;;;;;20.98;28.83;103220.47;4213534;28;20052;-56
2024/01/27 07:56:34;;;;;;;9.85;6.63;;;;;;;20.95;28.84;103221.47;4241177;28;20049;-56
2024/01/27 07:58:36;;;;;;;11.45;6.93;;;;;;;20.93;28.91;103214.44;4246805;27;20047;-55
2024/01/27 08:00:38;;;;;;;9.27;6.85;;;;;;;20.93;29.08;103209.97;4246589;28;20048;-53
2024/01/27 08:02:39;;;;;;;11.00;7.07;;;;;;;20.95;28.95;103212.56;4246888;27;20043;-56
2024/01/27 08:04:41;;;;;;;11.20;6.72;;;;;;;20.98;28.99;103207.09;4245711;28;20529;-56
2024/01/27 08:06:47;;;;;;;10.20;7.07;;;;;;;21.03;28.62;103216.69;4246805;27;20043;-56
2024/01/27 08:08:49;;;;;;;10.27;6.70;;;;;;;21.09;28.48;103214.72;4246962;27;20039;-56
2024/01/27 08:10:50;;;;;;;10.82;7.20;;;;;;;21.09;28.90;103220.06;4247307;27;20051;-55
2024/01/27 08:12:52;;;;;;;11.82;6.95;;;;;;;21.10;28.77;103220.00;4246948;27;20042;-56
2024/01/27 08:14:54;;;;;;;9.95;6.75;;;;;;;21.07;28.62;103217.44;4246961;27;20043;-56
2024/01/27 08:16:57;;;;;;;10.90;7.30;;;;;;;21.04;28.66;103218.41;4246731;27;20047;-56
2024/01/27 08:18:59;;;;;;;13.18;7.32;;;;;;;21.03;28.70;103223.84;4247023;27;20422;-55
2024/01/27 08:21:01;;;;;;;9.40;6.53;;;;;;;20.99;29.00;103233.78;4236594;28;20043;-56
2024/01/27 08:23:03;;;;;;;;;;;;;;;20.96;28.72;103235.72;4230369;28;20520;-55
2024/01/27 08:25:08;;;;;;;11.50;7.22;;;;;;;20.93;28.86;103238.53;4219723;28;19990;-57
2024/01/27 08:27:10;;;;;;;;;;;;;;;20.92;28.83;103234.09;4213354;28;20040;-55
2024/01/27 08:29:11;;;;;;;10.23;6.70;;;;;;;20.96;29.02;103233.94;4213778;28;19927;-56
2024/01/27 08:31:13;;;;;;;11.35;7.03;;;;;;;21.02;28.89;103239.03;4215777;28;20362;-57
2024/01/27 08:33:15;;;;;;;12.35;6.93;;;;;;;21.04;28.60;103217.56;4215897;28;20047;-56
2024/01/27 08:35:16;;;;;;;;;;;;;;;21.05;28.68;103225.50;4216236;28;20066;-56
2024/01/27 08:37:19;;;;;;;11.70;7.17;;;;;;;21.03;28.69;103213.13;4215850;28;20348;-55
2024/01/27 08:39:21;;;;;;;10.82;7.18;;;;;;;21.05;28.99;103216.63;4215790;28;20283;-56
2024/01/27 08:41:22;;;;;;;;;;;;;;;20.92;28.77;103208.22;4215031;28;20540;-57
2024/01/27 08:43:29;;;;;;;10.35;6.95;;;;;;;20.97;28.71;103221.41;4215354;28;19927;-59
2024/01/27 08:45:31;;;;;;;10.45;6.78;;;;;;;20.95;29.02;103217.91;4215803;28;20472;-57
2024/01/27 08:47:33;;;;;;;9.52;6.68;;;;;;;20.93;28.99;103222.47;4214512;28;20044;-56
2024/01/27 08:49:35;;;;;;;10.32;6.82;;;;;;;20.87;29.03;103216.41;4215989;28;20127;-57
2024/01/27 08:51:37;;;;;;;11.63;6.90;;;;;;;20.83;28.79;103213.94;4214492;28;20051;-56
2024/01/27 08:53:38;;;;;;;11.65;7.28;;;;;;;20.82;28.69;103220.22;4215558;28;20039;-53
2024/01/27 08:55:40;;;;;;;;;;;;;;;20.80;28.93;103219.41;4228612;27;20077;-57
2024/01/27 08:57:42;;;;;;;10.60;6.80;;;;;;;20.82;28.78;103209.53;4247822;27;19986;-57
2024/01/27 08:59:43;;;;;;;10.63;7.20;;;;;;;20.85;29.02;103217.41;4249410;27;20460;-56
2024/01/27 09:01:45;;;;;;;12.38;6.97;;;;;;;20.90;28.74;103215.44;4249285;27;20066;-56
2024/01/27 09:03:46;;;;;;;9.82;6.88;;;;;;;20.93;28.68;103209.09;4249173;27;20051;-56
2024/01/27 09:05:48;;;;;;;11.13;6.97;;;;;;;20.94;28.84;103208.19;4249182;27;20050;-56
2024/01/27 09:07:50;;;;;;;12.10;9.02;;;;;;;20.95;28.57;103210.78;4249121;27;20047;-57
2024/01/27 09:09:52;;;;;;;12.98;8.68;;;;;;;20.94;29.10;103206.34;4247754;27;20043;-55
2024/01/27 09:11:53;;;;;;;12.40;8.60;;;;;;;20.94;29.10;103201.00;4248928;27;20174;-56
2024/01/27 09:13:55;;;;;;;14.50;9.32;;;;;;;20.92;28.92;103208.22;4249217;27;20066;-56
2024/01/27 09:15:58;;;;;;;14.65;10.23;;;;;;;20.87;28.97;103199.50;4249119;27;20103;-56
2024/01/27 09:17:59;;;;;;;15.05;10.20;;;;;;;20.89;29.11;103195.84;4249164;27;20123;-56
2024/01/27 09:20:01;;;;;;;13.15;10.18;;;;;;;20.91;28.81;103187.75;4247295;27;20501;-56
2024/01/27 09:22:03;;;;;;;;;;;;;;;20.96;28.77;103193.81;4232424;28;20044;-57
2024/01/27 09:24:05;;;;;;;15.15;10.50;;;;;;;20.95;28.98;103189.38;4230651;28;19920;-56
2024/01/27 09:26:06;;;;;;;16.40;9.93;;;;;;;21.03;28.56;103186.38;4214773;28;20044;-56
2024/01/27 09:28:08;;;;;;;13.98;9.55;;;;;;;21.07;28.74;103188.03;4214890;28;20040;-57